Time;durP1;ratioP1;P1;durP2;ratioP2;P2;SDS_P1;SDS_P2;PMS_P1;PMS_P2;Temp;Humidity;BMP_temperature;BMP_pressure;BME280_temperature;BME280_humidity;BME280_pressure;Samples;Min_cycle;Max_cycle;Signal;HPM_P1;HPM_P2
2021/06/15 00:28:40;;;;;;;5.28;3.55;;;;;;;;;;4364568;28;20100;-73
2021/06/15 00:31:05;;;;;;;4.32;3.08;;;;;;;;;;4265037;33;20108;-73
2021/06/15 00:33:31;;;;;;;3.58;3.15;;;;;;;;;;4242467;33;20116;-73
2021/06/15 00:35:57;;;;;;;4.57;3.50;;;;;;;;;;4233124;33;20139;-74
2021/06/15 00:38:23;;;;;;;8.10;3.60;;;;;;;;;;4246900;33;20095;-73
2021/06/15 00:40:49;;;;;;;5.82;3.90;;;;;;;;;;4246958;33;20128;-74
2021/06/15 00:43:15;;;;;;;4.65;3.53;;;;;;;;;;4246670;33;20105;-74
2021/06/15 00:45:41;;;;;;;6.47;3.65;;;;;;;;;;4239623;33;20157;-74
2021/06/15 00:48:28;;;;;;;5.75;4.00;;;;;;;;;;4232706;33;20117;-74
2021/06/15 00:50:54;;;;;;;5.62;3.60;;;;;;;;;;4221632;33;20098;-73
2021/06/15 00:53:20;;;;;;;6.78;3.62;;;;;;;;;;4208201;33;20132;-73
2021/06/15 00:55:46;;;;;;;6.32;3.72;;;;;;;;;;4232650;33;20140;-72
2021/06/15 00:58:12;;;;;;;3.40;3.05;;;;;;;;;;4219536;33;20220;-73
2021/06/15 01:00:38;;;;;;;4.90;3.72;;;;;;;;;;4232691;33;20581;-73
2021/06/15 01:03:04;;;;;;;6.70;3.58;;;;;;;;;;4241465;33;20516;-73
2021/06/15 01:05:30;;;;;;;4.35;3.42;;;;;;;;;;4233362;33;20211;-72
2021/06/15 01:08:14;;;;;;;6.07;3.78;;;;;;;;;;4233657;33;20192;-73
2021/06/15 01:10:44;;;;;;;6.60;3.60;;;;;;;;;;4246585;33;20504;-73
2021/06/15 01:13:24;;;;;;;4.75;3.65;;;;;;;;;;4233825;33;20180;-72
2021/06/15 01:16:14;;;;;;;8.10;4.65;;;;;;;;;;4233572;33;20205;-74
2021/06/15 01:18:49;;;;;;;6.32;4.70;;;;;;;;;;4234347;33;20131;-74
2021/06/15 01:21:15;;;;;;;6.55;4.30;;;;;;;;;;4233500;33;20120;-74
2021/06/15 01:23:50;;;;;;;10.55;4.95;;;;;;;;;;4221689;33;20151;-74
2021/06/15 01:26:34;;;;;;;9.73;5.00;;;;;;;;;;4246320;33;20172;-74
2021/06/15 01:29:07;;;;;;;8.98;5.90;;;;;;;;;;4246450;33;20096;-72
2021/06/15 01:31:39;;;;;;;7.72;5.07;;;;;;;;;;4245825;33;20145;-73
2021/06/15 01:34:09;;;;;;;9.73;5.60;;;;;;;;;;4221288;33;20529;-74
2021/06/15 01:36:51;;;;;;;6.00;4.97;;;;;;;;;;4233421;33;20112;-74
2021/06/15 01:39:19;;;;;;;7.07;5.30;;;;;;;;;;4233145;33;20096;-74
2021/06/15 01:41:49;;;;;;;11.02;6.37;;;;;;;;;;4246260;33;20104;-74
2021/06/15 01:44:15;;;;;;;9.40;5.45;;;;;;;;;;4224233;33;20180;-74
2021/06/15 01:47:11;;;;;;;7.32;5.68;;;;;;;;;;4224050;33;20120;-74
2021/06/15 01:49:53;;;;;;;7.65;5.60;;;;;;;;;;4242133;33;20096;-74
2021/06/15 01:52:23;;;;;;;9.70;5.65;;;;;;;;;;4235780;33;20196;-74
2021/06/15 01:54:49;;;;;;;8.75;5.65;;;;;;;;;;4224274;33;20132;-74
2021/06/15 01:57:18;;;;;;;9.55;6.00;;;;;;;;;;4224025;33;20138;-74
2021/06/15 01:59:44;;;;;;;9.52;5.78;;;;;;;;;;4224003;33;20199;-74
2021/06/15 02:02:10;;;;;;;12.73;5.82;;;;;;;;;;4235395;33;20128;-73
2021/06/15 02:04:39;;;;;;;10.85;5.90;;;;;;;;;;4235385;33;20192;-74
2021/06/15 02:07:05;;;;;;;10.48;5.40;;;;;;;;;;4235429;33;20120;-74
2021/06/15 02:09:31;;;;;;;8.35;5.60;;;;;;;;;;4212103;33;20223;-73
2021/06/15 02:11:57;;;;;;;8.18;5.62;;;;;;;;;;4235168;33;20219;-73
2021/06/15 02:14:26;;;;;;;8.77;5.50;;;;;;;;;;4235316;33;20113;-76
2021/06/15 02:16:54;;;;;;;6.15;5.18;;;;;;;;;;4235354;33;20132;-75
2021/06/15 02:19:23;;;;;;;7.80;5.10;;;;;;;;;;4235420;33;20101;-73
2021/06/15 02:21:56;;;;;;;9.43;5.43;;;;;;;;;;4234845;33;20097;-75
2021/06/15 02:24:24;;;;;;;6.53;5.37;;;;;;;;;;4223996;33;20088;-74
2021/06/15 02:26:50;;;;;;;9.50;5.12;;;;;;;;;;4235069;33;20097;-74
2021/06/15 02:29:16;;;;;;;5.95;4.50;;;;;;;;;;4223059;33;20100;-72
2021/06/15 02:31:50;;;;;;;7.97;5.10;;;;;;;;;;4234944;33;20132;-72
2021/06/15 02:34:16;;;;;;;4.95;4.12;;;;;;;;;;4223506;33;20176;-73
2021/06/15 02:36:42;;;;;;;8.35;5.03;;;;;;;;;;4223331;33;20112;-75
2021/06/15 02:39:34;;;;;;;7.35;5.53;;;;;;;;;;4234977;33;20093;-73
2021/06/15 02:42:00;;;;;;;7.93;5.40;;;;;;;;;;4231961;33;20125;-71
2021/06/15 02:44:29;;;;;;;5.70;5.18;;;;;;;;;;4223237;33;20547;-70
2021/06/15 02:46:56;;;;;;;6.25;5.43;;;;;;;;;;4223300;33;20203;-72
2021/06/15 02:49:25;;;;;;;6.65;5.37;;;;;;;;;;4223222;33;20632;-73
2021/06/15 02:52:13;;;;;;;7.85;5.00;;;;;;;;;;4223325;33;20111;-78
2021/06/15 02:55:01;;;;;;;12.80;4.93;;;;;;;;;;4234311;33;20204;-73
2021/06/15 02:57:27;;;;;;;9.70;5.68;;;;;;;;;;4231072;33;20116;-72
2021/06/15 02:59:56;;;;;;;7.07;5.20;;;;;;;;;;4228675;33;20192;-74
2021/06/15 03:02:26;;;;;;;8.82;6.00;;;;;;;;;;4261839;33;20532;-71
2021/06/15 03:04:52;;;;;;;8.35;5.32;;;;;;;;;;4226754;33;20088;-74
2021/06/15 03:07:18;;;;;;;8.68;6.00;;;;;;;;;;4234541;33;20276;-72
2021/06/15 03:09:44;;;;;;;9.65;5.50;;;;;;;;;;4246714;33;20140;-70
2021/06/15 03:12:20;;;;;;;7.62;6.15;;;;;;;;;;4220584;33;20481;-68
2021/06/15 03:14:54;;;;;;;12.95;7.12;;;;;;;;;;4232151;33;20120;-74
2021/06/15 03:17:20;;;;;;;11.55;7.22;;;;;;;;;;4233230;33;20108;-72
2021/06/15 03:19:58;;;;;;;16.42;8.45;;;;;;;;;;4220629;33;20211;-73
2021/06/15 03:22:29;;;;;;;14.20;8.27;;;;;;;;;;4232646;33;20113;-71
2021/06/15 03:25:00;;;;;;;9.80;7.00;;;;;;;;;;4221650;33;20092;-72
2021/06/15 03:27:31;;;;;;;7.60;6.32;;;;;;;;;;4247285;33;20116;-70
2021/06/15 03:29:57;;;;;;;9.57;6.10;;;;;;;;;;4232494;33;20187;-72
2021/06/15 03:32:23;;;;;;;7.60;6.18;;;;;;;;;;4220573;33;20144;-71
2021/06/15 03:34:53;;;;;;;9.98;6.53;;;;;;;;;;4220734;33;20113;-74
2021/06/15 03:37:24;;;;;;;11.57;7.15;;;;;;;;;;4232240;33;20520;-71
2021/06/15 03:39:50;;;;;;;11.73;7.22;;;;;;;;;;4220743;33;20128;-71
2021/06/15 03:42:19;;;;;;;16.73;8.88;;;;;;;;;;4220842;33;20123;-72
2021/06/15 03:44:54;;;;;;;17.73;9.75;;;;;;;;;;4222384;33;20136;-71
2021/06/15 03:47:22;;;;;;;17.23;10.32;;;;;;;;;;4222809;33;20128;-70
2021/06/15 03:49:48;;;;;;;19.77;9.30;;;;;;;;;;4222887;33;20120;-70
2021/06/15 03:52:14;;;;;;;17.45;9.80;;;;;;;;;;4234007;33;20123;-69
2021/06/15 03:54:40;;;;;;;19.55;10.32;;;;;;;;;;4247234;33;20227;-70
2021/06/15 03:57:06;;;;;;;21.70;10.27;;;;;;;;;;4222753;33;20212;-71
2021/06/15 03:59:32;;;;;;;17.02;8.88;;;;;;;;;;4234529;33;20124;-70
2021/06/15 04:02:00;;;;;;;13.48;7.25;;;;;;;;;;4234466;33;20121;-71
2021/06/15 04:04:26;;;;;;;12.63;7.85;;;;;;;;;;4222913;33;20187;-70
2021/06/15 04:06:53;;;;;;;15.55;6.68;;;;;;;;;;4222332;33;20196;-69
2021/06/15 04:09:28;;;;;;;10.57;5.20;;;;;;;;;;4234412;33;20124;-71
2021/06/15 04:11:55;;;;;;;9.07;5.45;;;;;;;;;;4222458;33;20179;-70
2021/06/15 04:14:21;;;;;;;9.85;4.80;;;;;;;;;;4222541;33;20128;-71
2021/06/15 04:16:47;;;;;;;9.23;4.85;;;;;;;;;;4222565;33;20124;-70
2021/06/15 04:19:21;;;;;;;7.53;4.68;;;;;;;;;;4234188;33;20115;-71
2021/06/15 04:21:47;;;;;;;7.60;4.95;;;;;;;;;;4222758;33;20203;-71
2021/06/15 04:24:16;;;;;;;6.90;4.50;;;;;;;;;;4222212;33;20129;-71
2021/06/15 04:26:42;;;;;;;9.48;4.87;;;;;;;;;;4234275;33;20136;-77
2021/06/15 04:29:10;;;;;;;8.10;4.90;;;;;;;;;;4231484;33;20200;-77
2021/06/15 04:31:37;;;;;;;12.82;5.57;;;;;;;;;;4231667;33;20548;-76
2021/06/15 04:34:03;;;;;;;11.65;5.45;;;;;;;;;;4231604;33;20109;-76
2021/06/15 04:36:31;;;;;;;11.63;5.43;;;;;;;;;;4231556;33;20140;-75
2021/06/15 04:39:03;;;;;;;15.27;5.97;;;;;;;;;;4232573;33;20116;-79
2021/06/15 04:41:32;;;;;;;8.95;5.78;;;;;;;;;;4231653;33;20132;-76
2021/06/15 04:44:02;;;;;;;11.73;6.28;;;;;;;;;;4220046;33;20185;-74
2021/06/15 04:46:39;;;;;;;9.73;6.85;;;;;;;;;;4231484;33;20127;-75
2021/06/15 04:49:10;;;;;;;7.93;6.37;;;;;;;;;;4231773;33;20108;-73
2021/06/15 04:51:36;;;;;;;8.75;5.70;;;;;;;;;;4232897;33;20199;-71
2021/06/15 04:54:02;;;;;;;9.27;6.00;;;;;;;;;;4231625;33;20149;-76
2021/06/15 04:56:29;;;;;;;6.50;5.62;;;;;;;;;;4231492;33;20196;-76
2021/06/15 04:59:00;;;;;;;6.65;5.35;;;;;;;;;;4232599;33;20116;-75
2021/06/15 05:01:26;;;;;;;8.75;5.47;;;;;;;;;;4219658;33;20151;-72
2021/06/15 05:03:52;;;;;;;11.10;5.22;;;;;;;;;;4230931;33;20109;-72
2021/06/15 05:06:18;;;;;;;8.02;4.70;;;;;;;;;;4231277;33;20457;-73
2021/06/15 05:08:46;;;;;;;6.43;4.35;;;;;;;;;;4219201;33;20112;-73
2021/06/15 05:11:12;;;;;;;9.93;4.95;;;;;;;;;;4230857;33;20116;-72
2021/06/15 05:13:40;;;;;;;6.65;4.53;;;;;;;;;;4219458;33;20406;-72
2021/06/15 05:16:06;;;;;;;8.95;4.28;;;;;;;;;;4232282;33;20100;-72
2021/06/15 05:18:34;;;;;;;10.00;4.95;;;;;;;;;;4232597;33;20445;-73
2021/06/15 05:21:02;;;;;;;10.93;6.15;;;;;;;;;;4234424;33;20441;-72
2021/06/15 05:23:31;;;;;;;11.80;5.87;;;;;;;;;;4233006;33;20119;-71
2021/06/15 05:53:48;;;;;;;5.28;4.15;;;;;;;;;;3788490;37;20198;-73
2021/06/15 05:56:14;;;;;;;7.40;4.12;;;;;;;;;;4374321;32;20120;-73
2021/06/15 05:58:40;;;;;;;10.40;4.15;;;;;;;;;;4375675;32;20212;-72
2021/06/15 06:01:06;;;;;;;16.52;7.07;;;;;;;;;;4389596;32;20340;-72
2021/06/15 06:03:37;;;;;;;18.73;7.32;;;;;;;;;;4389355;32;20459;-73
2021/06/15 06:08:48;;;;;;;14.80;7.45;;;;;;;;;;4389860;32;20090;-73
2021/06/15 06:11:14;;;;;;;20.50;7.37;;;;;;;;;;4390050;32;20132;-73
2021/06/15 06:13:40;;;;;;;14.25;6.05;;;;;;;;;;4382535;32;20521;-73
2021/06/15 06:16:09;;;;;;;7.35;4.03;;;;;;;;;;4364614;32;20120;-72
2021/06/15 06:18:36;;;;;;;4.75;3.45;;;;;;;;;;4363698;32;20177;-72
2021/06/15 06:21:08;;;;;;;6.25;3.78;;;;;;;;;;4375467;32;20132;-72
2021/06/15 06:23:37;;;;;;;2.72;2.00;;;;;;;;;;4389227;32;20132;-72
2021/06/15 06:26:03;;;;;;;6.57;3.47;;;;;;;;;;4389175;32;20224;-72
2021/06/15 06:28:29;;;;;;;8.38;3.90;;;;;;;;;;4389215;32;20094;-71
2021/06/15 06:30:55;;;;;;;4.85;3.58;;;;;;;;;;4389199;32;20128;-71
2021/06/15 06:33:21;;;;;;;10.05;3.83;;;;;;;;;;4375493;32;20109;-72
2021/06/15 06:35:47;;;;;;;7.55;3.58;;;;;;;;;;4389234;32;20458;-72
2021/06/15 06:38:12;;;;;;;9.60;4.25;;;;;;;;;;4389226;32;20121;-73
2021/06/15 06:40:38;;;;;;;9.30;3.58;;;;;;;;;;4389584;32;20113;-73
2021/06/15 06:43:04;;;;;;;4.85;3.90;;;;;;;;;;4389676;32;20108;-72
2021/06/15 06:45:30;;;;;;;12.88;5.68;;;;;;;;;;4389820;32;20119;-73
2021/06/15 06:47:57;;;;;;;16.80;7.00;;;;;;;;;;4387086;32;20086;-74
2021/06/15 06:50:23;;;;;;;16.12;5.68;;;;;;;;;;4377472;32;20605;-74
2021/06/15 06:52:48;;;;;;;5.55;3.70;;;;;;;;;;4378328;32;20098;-73
2021/06/15 06:55:21;;;;;;;7.43;3.92;;;;;;;;;;4373434;32;20224;-74
2021/06/15 06:57:47;;;;;;;8.15;3.55;;;;;;;;;;4362984;32;20497;-73
2021/06/15 07:00:14;;;;;;;8.98;4.03;;;;;;;;;;4366664;32;20158;-74
2021/06/15 07:02:40;;;;;;;8.50;4.22;;;;;;;;;;4364847;32;20117;-74
2021/06/15 07:05:06;;;;;;;6.60;4.05;;;;;;;;;;4364806;32;20114;-74
2021/06/15 07:07:33;;;;;;;9.38;3.92;;;;;;;;;;4378418;32;20102;-75
2021/06/15 07:09:59;;;;;;;7.50;3.92;;;;;;;;;;4374220;32;20526;-72
2021/06/15 07:12:25;;;;;;;4.82;3.70;;;;;;;;;;4377678;32;20125;-74
2021/06/15 07:14:51;;;;;;;10.02;4.50;;;;;;;;;;4378308;32;20136;-75
2021/06/15 07:17:17;;;;;;;6.68;4.00;;;;;;;;;;4364828;32;20125;-71
2021/06/15 07:19:43;;;;;;;6.95;3.58;;;;;;;;;;4365149;32;20128;-71
2021/06/15 07:22:09;;;;;;;6.90;3.15;;;;;;;;;;4378404;32;20118;-70
2021/06/15 07:24:37;;;;;;;5.65;3.17;;;;;;;;;;4365294;32;20197;-68
2021/06/15 07:27:03;;;;;;;9.55;3.67;;;;;;;;;;4362729;32;20194;-67
2021/06/15 07:29:29;;;;;;;10.38;3.53;;;;;;;;;;4376328;32;20444;-69
2021/06/15 07:31:55;;;;;;;8.93;3.67;;;;;;;;;;4378548;32;20207;-68
2021/06/15 07:34:21;;;;;;;4.35;3.10;;;;;;;;;;4378576;32;20133;-75
2021/06/15 07:36:47;;;;;;;6.45;2.30;;;;;;;;;;4365129;32;20518;-77
2021/06/15 07:39:13;;;;;;;4.30;3.17;;;;;;;;;;4378683;32;20132;-76
2021/06/15 07:41:39;;;;;;;6.93;4.00;;;;;;;;;;4364300;32;20082;-75
2021/06/15 07:44:06;;;;;;;2.97;2.62;;;;;;;;;;4361278;32;20566;-74
2021/06/15 07:46:32;;;;;;;5.07;3.47;;;;;;;;;;4378571;32;20437;-74
2021/06/15 07:48:58;;;;;;;4.50;2.30;;;;;;;;;;4360925;32;20125;-74
2021/06/15 07:51:24;;;;;;;9.75;3.17;;;;;;;;;;4371534;32;20609;-76
2021/06/15 07:53:51;;;;;;;4.25;2.85;;;;;;;;;;4368834;32;20114;-75
2021/06/15 07:56:17;;;;;;;5.15;3.17;;;;;;;;;;4370275;32;20085;-75
2021/06/15 07:58:43;;;;;;;3.15;2.00;;;;;;;;;;4373305;32;20113;-75
2021/06/15 08:01:09;;;;;;;4.85;3.80;;;;;;;;;;4378480;32;20511;-74
2021/06/15 08:03:35;;;;;;;11.60;4.05;;;;;;;;;;4370986;32;20124;-75
2021/06/15 08:06:01;;;;;;;13.88;3.37;;;;;;;;;;4368046;32;20141;-75
2021/06/15 08:08:27;;;;;;;4.28;2.42;;;;;;;;;;4349346;32;20117;-76
2021/06/15 08:10:55;;;;;;;8.70;3.28;;;;;;;;;;4337808;32;20125;-75
2021/06/15 08:13:21;;;;;;;2.03;1.85;;;;;;;;;;4363490;32;20089;-75
2021/06/15 08:15:49;;;;;;;6.53;3.20;;;;;;;;;;4363557;32;20134;-75
2021/06/15 08:18:16;;;;;;;5.18;3.33;;;;;;;;;;4363125;32;20211;-74
2021/06/15 08:20:43;;;;;;;3.80;2.50;;;;;;;;;;4363187;32;20110;-74
2021/06/15 08:23:09;;;;;;;3.30;2.40;;;;;;;;;;4349474;32;20552;-73
2021/06/15 08:25:35;;;;;;;3.37;2.47;;;;;;;;;;4363353;32;20444;-74
2021/06/15 08:28:01;;;;;;;4.93;3.20;;;;;;;;;;4363206;32;20109;-73
2021/06/15 08:30:27;;;;;;;3.65;2.05;;;;;;;;;;4363424;32;20122;-74
2021/06/15 08:32:53;;;;;;;5.55;3.05;;;;;;;;;;4363077;32;20117;-74
2021/06/15 08:35:20;;;;;;;7.90;3.55;;;;;;;;;;4363454;32;20478;-74
2021/06/15 08:37:46;;;;;;;7.10;3.75;;;;;;;;;;4362856;32;20146;-75
2021/06/15 08:40:12;;;;;;;9.40;3.30;;;;;;;;;;4363897;32;20118;-76
2021/06/15 08:42:38;;;;;;;4.25;2.67;;;;;;;;;;4362969;32;20124;-73
2021/06/15 08:45:06;;;;;;;3.60;2.22;;;;;;;;;;4371253;32;20502;-73
2021/06/15 08:47:40;;;;;;;9.55;2.83;;;;;;;;;;4357657;32;20616;-77
2021/06/15 08:50:07;;;;;;;4.00;1.85;;;;;;;;;;4362720;32;20124;-73
2021/06/15 08:52:35;;;;;;;2.35;2.15;;;;;;;;;;4365678;32;20187;-74
2021/06/15 08:55:01;;;;;;;7.05;2.83;;;;;;;;;;4365219;32;20125;-73
2021/06/15 08:57:27;;;;;;;8.68;3.87;;;;;;;;;;4362650;32;20118;-74
2021/06/15 08:59:54;;;;;;;1.95;1.75;;;;;;;;;;4337328;32;20210;-73
2021/06/15 09:02:20;;;;;;;7.53;3.10;;;;;;;;;;4350003;32;20098;-73
2021/06/15 09:04:46;;;;;;;10.25;3.17;;;;;;;;;;4361529;32;20145;-72
2021/06/15 09:07:12;;;;;;;4.37;2.87;;;;;;;;;;4362958;32;20106;-73
2021/06/15 09:09:42;;;;;;;5.82;2.45;;;;;;;;;;4349238;32;20525;-72
2021/06/15 09:12:16;;;;;;;6.68;2.55;;;;;;;;;;4362371;32;20129;-72
2021/06/15 09:14:47;;;;;;;8.48;2.85;;;;;;;;;;4362885;32;20118;-72
2021/06/15 09:17:15;;;;;;;4.22;2.40;;;;;;;;;;4362252;32;20174;-72
2021/06/15 09:19:41;;;;;;;3.65;2.58;;;;;;;;;;4362477;32;20133;-72
2021/06/15 09:22:13;;;;;;;5.10;2.17;;;;;;;;;;4362332;32;20102;-72
2021/06/15 09:24:45;;;;;;;2.20;2.00;;;;;;;;;;4348961;32;20181;-73
2021/06/15 09:27:11;;;;;;;4.35;2.40;;;;;;;;;;4362431;32;20110;-73
2021/06/15 09:29:53;;;;;;;2.12;1.77;;;;;;;;;;4372608;32;20144;-73
2021/06/15 09:32:26;;;;;;;7.18;2.47;;;;;;;;;;4362811;32;20120;-73
2021/06/15 09:34:55;;;;;;;5.53;2.70;;;;;;;;;;4367883;32;20112;-73
2021/06/15 09:37:28;;;;;;;3.83;2.00;;;;;;;;;;4377413;32;20579;-74
2021/06/15 09:39:55;;;;;;;4.55;2.25;;;;;;;;;;4377662;32;20099;-73
2021/06/15 09:42:21;;;;;;;4.68;2.53;;;;;;;;;;4377444;32;20106;-74
2021/06/15 09:44:47;;;;;;;10.73;2.42;;;;;;;;;;4377339;32;20124;-73
2021/06/15 09:47:13;;;;;;;4.03;2.20;;;;;;;;;;4377110;32;20516;-74
2021/06/15 09:49:40;;;;;;;11.05;2.92;;;;;;;;;;4363597;32;20101;-73
2021/06/15 09:52:14;;;;;;;3.35;2.58;;;;;;;;;;4377275;32;20156;-74
2021/06/15 09:54:41;;;;;;;3.40;2.37;;;;;;;;;;4377566;32;20517;-73
2021/06/15 09:57:12;;;;;;;15.98;3.28;;;;;;;;;;4377657;32;20118;-73
2021/06/15 09:59:59;;;;;;;6.45;2.20;;;;;;;;;;4362936;32;20113;-73
2021/06/15 10:02:27;;;;;;;7.22;2.67;;;;;;;;;;4364948;32;20237;-73
2021/06/15 10:04:53;;;;;;;3.33;2.20;;;;;;;;;;4363330;32;20218;-73
2021/06/15 10:07:26;;;;;;;13.18;2.58;;;;;;;;;;4363100;32;20540;-73
2021/06/15 10:09:53;;;;;;;4.37;2.22;;;;;;;;;;4363211;32;20549;-73
2021/06/15 10:12:20;;;;;;;6.85;2.40;;;;;;;;;;4374964;32;20303;-73
2021/06/15 10:14:48;;;;;;;9.50;2.70;;;;;;;;;;4377195;32;20113;-74
2021/06/15 10:17:13;;;;;;;3.10;2.15;;;;;;;;;;4338304;32;20117;-73
2021/06/15 10:19:41;;;;;;;3.12;2.75;;;;;;;;;;4353587;32;20122;-71
2021/06/15 10:22:08;;;;;;;5.95;2.75;;;;;;;;;;4368129;32;20110;-72
2021/06/15 10:24:38;;;;;;;3.62;1.90;;;;;;;;;;4368069;32;20094;-70
2021/06/15 10:27:05;;;;;;;6.57;2.78;;;;;;;;;;4367413;32;20120;-72
2021/06/15 10:29:33;;;;;;;2.17;1.90;;;;;;;;;;4369845;32;20197;-70
2021/06/15 10:31:58;;;;;;;2.85;2.15;;;;;;;;;;4337694;32;20145;-70
2021/06/15 10:34:46;;;;;;;3.53;2.75;;;;;;;;;;4349290;32;20587;-71
2021/06/15 10:37:32;;;;;;;3.95;2.10;;;;;;;;;;4368396;32;20085;-71
2021/06/15 10:40:26;;;;;;;5.40;2.42;;;;;;;;;;4369060;32;20172;-71
2021/06/15 10:43:12;;;;;;;5.40;2.60;;;;;;;;;;4344511;32;20468;-71
2021/06/15 10:45:40;;;;;;;6.70;2.97;;;;;;;;;;4368658;32;20191;-72
2021/06/15 10:48:06;;;;;;;8.30;2.62;;;;;;;;;;4371964;32;20547;-70
2021/06/15 10:50:39;;;;;;;2.78;2.00;;;;;;;;;;4371649;32;20124;-72
2021/06/15 10:53:08;;;;;;;6.80;2.50;;;;;;;;;;4367758;32;20572;-73
2021/06/15 10:56:02;;;;;;;3.35;2.33;;;;;;;;;;4370535;32;20422;-70
2021/06/15 10:58:44;;;;;;;4.40;2.33;;;;;;;;;;4359904;32;20126;-72
2021/06/15 11:01:14;;;;;;;3.58;2.60;;;;;;;;;;4367970;32;20130;-74
2021/06/15 11:04:10;;;;;;;6.95;3.22;;;;;;;;;;4369736;32;20120;-72
2021/06/15 11:06:38;;;;;;;4.37;2.90;;;;;;;;;;4361455;32;20162;-72
2021/06/15 11:09:24;;;;;;;4.32;2.92;;;;;;;;;;4364086;32;20530;-71
2021/06/15 11:12:18;;;;;;;9.65;3.17;;;;;;;;;;4367267;32;20174;-70
2021/06/15 11:15:09;;;;;;;6.03;2.80;;;;;;;;;;4351535;32;20113;-71
2021/06/15 11:17:52;;;;;;;5.47;2.40;;;;;;;;;;4378544;32;20181;-69
2021/06/15 11:20:25;;;;;;;6.70;2.10;;;;;;;;;;4378949;32;20105;-70
2021/06/15 11:23:30;;;;;;;2.35;1.70;;;;;;;;;;4363670;32;20110;-70
2021/06/15 11:25:59;;;;;;;5.43;2.33;;;;;;;;;;4317138;33;20111;-69
2021/06/15 11:28:35;;;;;;;3.45;2.10;;;;;;;;;;4316868;33;20550;-71
2021/06/15 11:31:20;;;;;;;1.95;1.85;;;;;;;;;;4343257;32;20099;-75
2021/06/15 11:33:58;;;;;;;8.32;2.50;;;;;;;;;;4363707;32;20148;-73
2021/06/15 11:36:42;;;;;;;5.55;2.58;;;;;;;;;;4363757;32;20098;-70
2021/06/15 11:39:34;;;;;;;5.62;2.30;;;;;;;;;;4363614;32;20422;-72
2021/06/15 11:42:19;;;;;;;7.15;2.10;;;;;;;;;;4361990;32;20532;-73
2021/06/15 11:44:54;;;;;;;6.10;2.40;;;;;;;;;;4370184;32;20113;-71
2021/06/15 11:47:40;;;;;;;4.00;2.90;;;;;;;;;;4365852;32;20101;-71
2021/06/15 11:50:24;;;;;;;8.50;1.95;;;;;;;;;;4364997;32;20192;-70
2021/06/15 11:52:54;;;;;;;2.53;1.90;;;;;;;;;;4362530;32;20137;-74
2021/06/15 11:55:31;;;;;;;7.85;2.42;;;;;;;;;;4364599;32;20125;-72
2021/06/15 11:58:06;;;;;;;5.75;2.33;;;;;;;;;;4364260;32;20109;-72
2021/06/15 12:00:38;;;;;;;1.77;1.67;;;;;;;;;;4364315;32;20105;-76
2021/06/15 12:03:13;;;;;;;5.90;2.17;;;;;;;;;;4363272;32;20137;-73
2021/06/15 12:05:43;;;;;;;7.07;2.50;;;;;;;;;;4351098;32;20219;-69
2021/06/15 12:08:09;;;;;;;4.70;2.37;;;;;;;;;;4363385;32;20532;-70
2021/06/15 12:10:35;;;;;;;3.60;2.40;;;;;;;;;;4363808;32;20625;-70
2021/06/15 12:13:18;;;;;;;5.43;1.90;;;;;;;;;;4363388;32;20397;-72
2021/06/15 12:15:52;;;;;;;9.50;3.53;;;;;;;;;;4363990;32;20454;-75
2021/06/15 12:18:21;;;;;;;10.50;3.25;;;;;;;;;;4363610;32;20091;-71
2021/06/15 12:20:56;;;;;;;8.88;2.72;;;;;;;;;;4363892;32;20208;-72
2021/06/15 12:23:34;;;;;;;5.90;2.45;;;;;;;;;;4362431;32;20102;-75
2021/06/15 12:26:27;;;;;;;12.55;2.25;;;;;;;;;;4363257;32;20079;-71
2021/06/15 12:29:11;;;;;;;8.75;2.12;;;;;;;;;;4364002;32;20199;-69
2021/06/15 12:31:45;;;;;;;8.80;2.83;;;;;;;;;;4363414;32;20301;-69
2021/06/15 12:34:29;;;;;;;8.60;3.47;;;;;;;;;;4362207;32;20446;-70
2021/06/15 12:36:59;;;;;;;4.30;2.25;;;;;;;;;;4363465;32;20130;-70
2021/06/15 12:39:27;;;;;;;4.95;2.20;;;;;;;;;;4363301;32;20097;-69
2021/06/15 12:41:58;;;;;;;8.73;2.97;;;;;;;;;;4348837;32;20208;-72
2021/06/15 12:44:39;;;;;;;4.35;2.58;;;;;;;;;;4363346;32;20093;-69
2021/06/15 12:47:15;;;;;;;7.57;3.00;;;;;;;;;;4363196;32;20138;-69
2021/06/15 12:49:55;;;;;;;5.37;2.53;;;;;;;;;;4361144;32;20572;-69
2021/06/15 12:52:21;;;;;;;8.38;2.45;;;;;;;;;;4362541;32;20106;-68
2021/06/15 12:54:48;;;;;;;9.30;2.70;;;;;;;;;;4361415;32;20125;-70
2021/06/15 12:57:17;;;;;;;5.53;2.30;;;;;;;;;;4362756;32;20106;-71
2021/06/15 12:59:44;;;;;;;5.72;2.12;;;;;;;;;;4362884;32;20110;-69
2021/06/15 13:02:14;;;;;;;12.20;2.65;;;;;;;;;;4362764;32;20121;-69
2021/06/15 13:04:47;;;;;;;6.68;2.70;;;;;;;;;;4362977;32;20125;-69
2021/06/15 13:07:13;;;;;;;17.80;2.97;;;;;;;;;;4362725;32;20134;-72
2021/06/15 13:09:39;;;;;;;4.90;2.75;;;;;;;;;;4354579;32;20094;-70
2021/06/15 13:12:06;;;;;;;7.15;2.30;;;;;;;;;;4334627;33;20123;-69
2021/06/15 13:14:36;;;;;;;4.68;3.03;;;;;;;;;;4353845;32;20110;-68
2021/06/15 13:17:11;;;;;;;12.57;2.83;;;;;;;;;;4363017;32;20102;-68
2021/06/15 13:19:41;;;;;;;3.35;2.45;;;;;;;;;;4361257;32;20107;-68
2021/06/15 13:22:07;;;;;;;4.53;2.67;;;;;;;;;;4361872;32;20637;-70
2021/06/15 13:24:42;;;;;;;5.93;2.53;;;;;;;;;;4362575;32;20217;-75
2021/06/15 13:27:38;;;;;;;;;;;;;;;;;;4364312;32;20188;-77
2021/06/15 13:30:17;;;;;;;5.22;2.58;;;;;;;;;;4350070;32;19957;-73
2021/06/15 13:32:44;;;;;;;9.30;2.50;;;;;;;;;;4361345;32;20121;-73
2021/06/15 13:35:24;;;;;;;8.70;2.40;;;;;;;;;;4362862;32;20480;-74
2021/06/15 13:37:55;;;;;;;9.30;2.40;;;;;;;;;;4348528;32;20107;-77
2021/06/15 13:40:44;;;;;;;7.97;3.10;;;;;;;;;;4362719;32;20117;-74
2021/06/15 13:43:12;;;;;;;8.85;2.75;;;;;;;;;;4362500;32;20105;-68
2021/06/15 13:45:39;;;;;;;14.60;3.05;;;;;;;;;;4362208;32;20110;-71
2021/06/15 13:48:06;;;;;;;9.50;3.28;;;;;;;;;;4362535;32;20106;-69
2021/06/15 13:50:33;;;;;;;8.90;2.60;;;;;;;;;;4348826;32;20190;-73
2021/06/15 13:52:58;;;;;;;6.95;2.87;;;;;;;;;;4354059;32;20107;-71
2021/06/15 13:55:24;;;;;;;10.05;3.00;;;;;;;;;;4362507;32;20144;-73
2021/06/15 13:57:51;;;;;;;8.40;2.60;;;;;;;;;;4362510;32;20118;-72
2021/06/15 14:00:19;;;;;;;10.90;3.25;;;;;;;;;;4361024;32;20536;-74
2021/06/15 14:02:48;;;;;;;16.15;3.75;;;;;;;;;;4361035;32;20222;-75
2021/06/15 14:05:15;;;;;;;12.75;3.92;;;;;;;;;;4364267;32;20113;-74
2021/06/15 14:07:41;;;;;;;7.43;4.30;;;;;;;;;;4363737;32;20122;-72
2021/06/15 14:10:08;;;;;;;8.60;2.70;;;;;;;;;;4364106;32;20607;-71
2021/06/15 14:12:34;;;;;;;3.42;2.42;;;;;;;;;;4364139;32;20531;-72
2021/06/15 14:15:06;;;;;;;2.33;2.12;;;;;;;;;;4363416;32;20109;-73
2021/06/15 14:17:32;;;;;;;2.83;2.10;;;;;;;;;;4364697;32;20224;-71
2021/06/15 14:19:58;;;;;;;6.03;3.05;;;;;;;;;;4364663;32;20198;-70
2021/06/15 14:22:25;;;;;;;7.03;3.05;;;;;;;;;;4362952;32;20105;-73
2021/06/15 14:24:51;;;;;;;4.45;2.00;;;;;;;;;;4364083;32;20121;-73
2021/06/15 14:27:20;;;;;;;4.57;2.15;;;;;;;;;;4364245;32;20524;-71
2021/06/15 14:29:47;;;;;;;4.80;2.20;;;;;;;;;;4364412;32;20177;-73
2021/06/15 14:32:14;;;;;;;5.18;2.72;;;;;;;;;;4363118;32;20097;-73
2021/06/15 14:34:40;;;;;;;3.12;1.42;;;;;;;;;;4365159;32;20112;-70
2021/06/15 14:37:06;;;;;;;3.00;2.17;;;;;;;;;;4364607;32;20146;-73
2021/06/15 14:39:32;;;;;;;6.03;2.42;;;;;;;;;;4363944;32;20508;-71
2021/06/15 14:41:58;;;;;;;5.43;2.97;;;;;;;;;;4364574;32;20104;-72
2021/06/15 14:44:24;;;;;;;6.15;2.47;;;;;;;;;;4362528;32;20160;-71
2021/06/15 14:46:50;;;;;;;15.88;3.62;;;;;;;;;;4364153;32;20233;-71
2021/06/15 14:49:17;;;;;;;2.08;1.83;;;;;;;;;;4364311;32;20114;-69
2021/06/15 14:51:42;;;;;;;1.70;1.60;;;;;;;;;;4363626;32;20453;-68
2021/06/15 14:54:08;;;;;;;3.25;1.75;;;;;;;;;;4375121;32;20109;-69
2021/06/15 14:56:35;;;;;;;3.72;1.90;;;;;;;;;;4378517;32;20125;-73
2021/06/15 14:59:01;;;;;;;3.17;2.08;;;;;;;;;;4379205;32;20182;-72
2021/06/15 15:01:29;;;;;;;8.27;2.37;;;;;;;;;;4378800;32;20094;-70
2021/06/15 15:03:55;;;;;;;6.03;1.90;;;;;;;;;;4365623;32;20113;-70
2021/06/15 15:06:21;;;;;;;8.20;2.22;;;;;;;;;;4378772;32;20202;-70
2021/06/15 15:08:47;;;;;;;8.32;2.40;;;;;;;;;;4378931;32;20122;-72
2021/06/15 15:11:13;;;;;;;6.20;2.30;;;;;;;;;;4378587;32;20513;-70
2021/06/15 15:13:39;;;;;;;4.95;2.60;;;;;;;;;;4378027;32;20101;-70
2021/06/15 15:16:06;;;;;;;4.00;2.47;;;;;;;;;;4378902;32;20193;-70
2021/06/15 15:18:33;;;;;;;12.45;2.30;;;;;;;;;;4378787;32;20133;-71
2021/06/15 15:21:00;;;;;;;8.05;4.30;;;;;;;;;;4379070;32;20222;-73
2021/06/15 15:23:27;;;;;;;6.32;2.62;;;;;;;;;;4366906;32;20117;-72
2021/06/15 15:25:54;;;;;;;3.15;2.50;;;;;;;;;;4378915;32;20078;-74
2021/06/15 15:28:20;;;;;;;5.70;2.67;;;;;;;;;;4352025;32;20095;-71
2021/06/15 15:30:46;;;;;;;6.60;3.00;;;;;;;;;;4352715;32;20445;-69
2021/06/15 15:33:12;;;;;;;3.97;2.28;;;;;;;;;;4365018;32;20149;-69
2021/06/15 15:35:39;;;;;;;4.35;2.78;;;;;;;;;;4379135;32;20497;-74
2021/06/15 15:38:05;;;;;;;10.15;2.30;;;;;;;;;;4364933;32;20209;-71
2021/06/15 15:40:31;;;;;;;4.12;2.92;;;;;;;;;;4378928;32;20217;-69
2021/06/15 15:43:00;;;;;;;5.47;2.97;;;;;;;;;;4379044;32;20436;-71
2021/06/15 15:45:26;;;;;;;5.72;2.80;;;;;;;;;;4364158;32;20106;-74
2021/06/15 15:47:53;;;;;;;9.32;2.42;;;;;;;;;;4363738;32;20504;-73
2021/06/15 15:50:23;;;;;;;4.03;2.30;;;;;;;;;;4363297;32;20105;-78
2021/06/15 15:52:49;;;;;;;2.08;1.90;;;;;;;;;;4347362;32;20098;-77
2021/06/15 15:55:17;;;;;;;2.55;2.03;;;;;;;;;;4345722;33;20110;-69